<?xml version="1.0" encoding="UTF-8" standalone="no" ?>
<gpx xmlns="http://www.topografix.com/GPX/1/1" xmlns:xsi="http://www.w3.org/2001/XMLSchema-instance" xsi:schemaLocation="http://www.topografix.com/GPX/1/1 http://www.topografix.com/GPX/1/1/gpx.xsd" version="1.1" creator="VisuGPX - https://www.visugpx.com">
  <metadata>
    <name>&quot;Tumulus&quot; de Trélazé</name>
    <desc><![CDATA[Départ au musée de l'ardoise]]></desc>
  </metadata>
  <trk>
    <name><![CDATA[randogps49-188]]></name>
    <extensions>
      <line xmlns="http://www.topografix.com/GPX/gpx_style/0/2">
        <color>0000FF</color>
        <width>4</width>
      </line>
    </extensions>
    <trkseg>
      <trkpt lat="47.44658" lon="-0.48911">
        <ele>20</ele>
        <time>2016-04-11T23:15:41Z</time>
      </trkpt>
      <trkpt lat="47.4464" lon="-0.48828">
        <ele>21</ele>
        <time>2016-04-11T23:17:41Z</time>
      </trkpt>
      <trkpt lat="47.44605" lon="-0.48723">
        <ele>20</ele>
        <time>2016-04-11T23:19:41Z</time>
      </trkpt>
      <trkpt lat="47.44551" lon="-0.48754">
        <ele>20</ele>
        <time>2016-04-11T23:21:41Z</time>
      </trkpt>
      <trkpt lat="47.44488" lon="-0.48596">
        <ele>21</ele>
        <time>2016-04-11T23:23:41Z</time>
      </trkpt>
      <trkpt lat="47.44365" lon="-0.48533">
        <ele>21</ele>
        <time>2016-04-11T23:25:41Z</time>
      </trkpt>
      <trkpt lat="47.44354" lon="-0.48517">
        <ele>20</ele>
        <time>2016-04-11T23:27:41Z</time>
      </trkpt>
      <trkpt lat="47.44357" lon="-0.48481">
        <ele>20</ele>
        <time>2016-04-11T23:29:41Z</time>
      </trkpt>
      <trkpt lat="47.44296" lon="-0.48425">
        <ele>19</ele>
        <time>2016-04-11T23:31:41Z</time>
      </trkpt>
      <trkpt lat="47.4427" lon="-0.48417">
        <ele>19</ele>
        <time>2016-04-11T23:33:41Z</time>
      </trkpt>
      <trkpt lat="47.44227" lon="-0.48472">
        <ele>19</ele>
        <time>2016-04-11T23:35:41Z</time>
      </trkpt>
      <trkpt lat="47.44137" lon="-0.48409">
        <ele>19</ele>
        <time>2016-04-11T23:37:41Z</time>
      </trkpt>
      <trkpt lat="47.44139" lon="-0.48363">
        <ele>20</ele>
        <time>2016-04-11T23:39:41Z</time>
      </trkpt>
      <trkpt lat="47.44125" lon="-0.48322">
        <ele>20</ele>
        <time>2016-04-11T23:41:41Z</time>
      </trkpt>
      <trkpt lat="47.44077" lon="-0.48221">
        <ele>21</ele>
        <time>2016-04-11T23:43:41Z</time>
      </trkpt>
      <trkpt lat="47.44027" lon="-0.48267">
        <ele>20</ele>
        <time>2016-04-11T23:45:41Z</time>
      </trkpt>
      <trkpt lat="47.43993" lon="-0.48187">
        <ele>19</ele>
        <time>2016-04-11T23:47:41Z</time>
      </trkpt>
      <trkpt lat="47.4396" lon="-0.48144">
        <ele>18</ele>
        <time>2016-04-11T23:49:41Z</time>
      </trkpt>
      <trkpt lat="47.43818" lon="-0.47991">
        <ele>18</ele>
        <time>2016-04-11T23:51:41Z</time>
      </trkpt>
      <trkpt lat="47.4361" lon="-0.48116">
        <ele>21</ele>
        <time>2016-04-11T23:53:41Z</time>
      </trkpt>
      <trkpt lat="47.43506" lon="-0.47946">
        <ele>21</ele>
        <time>2016-04-11T23:55:41Z</time>
      </trkpt>
      <trkpt lat="47.43495" lon="-0.47905">
        <ele>21</ele>
        <time>2016-04-11T23:57:41Z</time>
      </trkpt>
      <trkpt lat="47.43434" lon="-0.47826">
        <ele>20</ele>
        <time>2016-04-11T23:59:41Z</time>
      </trkpt>
      <trkpt lat="47.43344" lon="-0.47665">
        <ele>20</ele>
        <time>2016-04-12T00:01:41Z</time>
      </trkpt>
      <trkpt lat="47.43345" lon="-0.47641">
        <ele>21</ele>
        <time>2016-04-12T00:03:41Z</time>
      </trkpt>
      <trkpt lat="47.43332" lon="-0.47651">
        <ele>20</ele>
        <time>2016-04-12T00:05:41Z</time>
      </trkpt>
      <trkpt lat="47.43318" lon="-0.47623">
        <ele>20</ele>
        <time>2016-04-12T00:07:41Z</time>
      </trkpt>
      <trkpt lat="47.43468" lon="-0.47495">
        <ele>20</ele>
        <time>2016-04-12T01:45:41Z</time>
      </trkpt>
      <trkpt lat="47.43624" lon="-0.47915">
        <ele>22</ele>
        <time>2016-04-12T01:47:41Z</time>
      </trkpt>
      <trkpt lat="47.43657" lon="-0.47947">
        <ele>19</ele>
        <time>2016-04-12T01:49:41Z</time>
      </trkpt>
      <trkpt lat="47.43685" lon="-0.48005">
        <ele>19</ele>
        <time>2016-04-12T01:51:41Z</time>
      </trkpt>
      <trkpt lat="47.43749" lon="-0.47972">
        <ele>17</ele>
        <time>2016-04-12T01:53:41Z</time>
      </trkpt>
      <trkpt lat="47.43781" lon="-0.47997">
        <ele>18</ele>
        <time>2016-04-12T01:55:41Z</time>
      </trkpt>
      <trkpt lat="47.4382" lon="-0.47973">
        <ele>17</ele>
        <time>2016-04-12T01:57:41Z</time>
      </trkpt>
      <trkpt lat="47.43878" lon="-0.47906">
        <ele>16</ele>
        <time>2016-04-12T01:59:41Z</time>
      </trkpt>
      <trkpt lat="47.44019" lon="-0.47894">
        <ele>19</ele>
        <time>2016-04-12T02:01:41Z</time>
      </trkpt>
      <trkpt lat="47.44092" lon="-0.47771">
        <ele>22</ele>
        <time>2016-04-12T02:03:41Z</time>
      </trkpt>
      <trkpt lat="47.44113" lon="-0.47793">
        <ele>22</ele>
        <time>2016-04-12T02:05:41Z</time>
      </trkpt>
      <trkpt lat="47.44123" lon="-0.47855">
        <ele>22</ele>
        <time>2016-04-12T02:07:41Z</time>
      </trkpt>
      <trkpt lat="47.44076" lon="-0.47968">
        <ele>26</ele>
        <time>2016-04-12T02:09:41Z</time>
      </trkpt>
      <trkpt lat="47.44108" lon="-0.48007">
        <ele>27</ele>
        <time>2016-04-12T02:11:41Z</time>
      </trkpt>
      <trkpt lat="47.4413" lon="-0.48006">
        <ele>27</ele>
        <time>2016-04-12T02:13:41Z</time>
      </trkpt>
      <trkpt lat="47.44167" lon="-0.47938">
        <ele>26</ele>
        <time>2016-04-12T02:15:41Z</time>
      </trkpt>
      <trkpt lat="47.44162" lon="-0.47933">
        <ele>26</ele>
        <time>2016-04-12T02:17:41Z</time>
      </trkpt>
      <trkpt lat="47.44127" lon="-0.48001">
        <ele>27</ele>
        <time>2016-04-12T02:19:41Z</time>
      </trkpt>
      <trkpt lat="47.44109" lon="-0.48001">
        <ele>27</ele>
        <time>2016-04-12T02:21:41Z</time>
      </trkpt>
      <trkpt lat="47.44081" lon="-0.47963">
        <ele>26</ele>
        <time>2016-04-12T02:23:41Z</time>
      </trkpt>
      <trkpt lat="47.44129" lon="-0.47858">
        <ele>22</ele>
        <time>2016-04-12T02:25:41Z</time>
      </trkpt>
      <trkpt lat="47.44119" lon="-0.47791">
        <ele>22</ele>
        <time>2016-04-12T02:27:41Z</time>
      </trkpt>
      <trkpt lat="47.44098" lon="-0.47768">
        <ele>22</ele>
        <time>2016-04-12T02:29:41Z</time>
      </trkpt>
      <trkpt lat="47.44117" lon="-0.47737">
        <ele>22</ele>
        <time>2016-04-12T02:31:41Z</time>
      </trkpt>
      <trkpt lat="47.44333" lon="-0.48069">
        <ele>23</ele>
        <time>2016-04-12T02:33:41Z</time>
      </trkpt>
      <trkpt lat="47.44308" lon="-0.48113">
        <ele>21</ele>
        <time>2016-04-12T02:35:41Z</time>
      </trkpt>
      <trkpt lat="47.44365" lon="-0.48223">
        <ele>21</ele>
        <time>2016-04-12T02:37:41Z</time>
      </trkpt>
      <trkpt lat="47.44415" lon="-0.48274">
        <ele>21</ele>
        <time>2016-04-12T02:39:41Z</time>
      </trkpt>
      <trkpt lat="47.44316" lon="-0.48287">
        <ele>19</ele>
        <time>2016-04-12T02:41:41Z</time>
      </trkpt>
      <trkpt lat="47.44319" lon="-0.48328">
        <ele>19</ele>
        <time>2016-04-12T02:43:41Z</time>
      </trkpt>
      <trkpt lat="47.44329" lon="-0.48363">
        <ele>19</ele>
        <time>2016-04-12T02:45:41Z</time>
      </trkpt>
      <trkpt lat="47.44378" lon="-0.48365">
        <ele>20</ele>
        <time>2016-04-12T02:47:41Z</time>
      </trkpt>
      <trkpt lat="47.4438" lon="-0.48405">
        <ele>20</ele>
        <time>2016-04-12T02:49:41Z</time>
      </trkpt>
      <trkpt lat="47.44407" lon="-0.48406">
        <ele>21</ele>
        <time>2016-04-12T02:51:41Z</time>
      </trkpt>
      <trkpt lat="47.44421" lon="-0.48427">
        <ele>21</ele>
        <time>2016-04-12T02:53:41Z</time>
      </trkpt>
      <trkpt lat="47.44474" lon="-0.48413">
        <ele>20</ele>
        <time>2016-04-12T02:55:41Z</time>
      </trkpt>
      <trkpt lat="47.44572" lon="-0.48461">
        <ele>20</ele>
        <time>2016-04-12T02:57:41Z</time>
      </trkpt>
      <trkpt lat="47.44452" lon="-0.48483">
        <ele>21</ele>
        <time>2016-04-12T02:59:41Z</time>
      </trkpt>
      <trkpt lat="47.44487" lon="-0.48591">
        <ele>21</ele>
        <time>2016-04-12T03:01:41Z</time>
      </trkpt>
      <trkpt lat="47.44557" lon="-0.4875">
        <ele>20</ele>
        <time>2016-04-12T03:03:41Z</time>
      </trkpt>
      <trkpt lat="47.4461" lon="-0.4872">
        <ele>20</ele>
        <time>2016-04-12T03:05:41Z</time>
      </trkpt>
      <trkpt lat="47.44646" lon="-0.48827">
        <ele>21</ele>
        <time>2016-04-12T03:07:41Z</time>
      </trkpt>
      <trkpt lat="47.44658" lon="-0.48911">
        <ele>20</ele>
        <time>2016-04-12T03:09:41Z</time>
      </trkpt>
    </trkseg>
  </trk>
</gpx>